sensor_id;sensor_type;location;lat;lon;timestamp;P1;durP1;ratioP1;P2;durP2;ratioP2
5702;SDS011;2876;51.738;10.050;2024-01-30T00:02:52;10.97;;;6.50;;
5702;SDS011;2876;51.738;10.050;2024-01-30T00:08:54;8.90;;;6.60;;
5702;SDS011;2876;51.738;10.050;2024-01-30T00:14:56;10.10;;;6.23;;
5702;SDS011;2876;51.738;10.050;2024-01-30T00:20:59;12.60;;;6.57;;
5702;SDS011;2876;51.738;10.050;2024-01-30T00:27:01;11.07;;;6.20;;
5702;SDS011;2876;51.738;10.050;2024-01-30T00:33:03;9.83;;;5.70;;
5702;SDS011;2876;51.738;10.050;2024-01-30T00:39:05;12.20;;;6.00;;
5702;SDS011;2876;51.738;10.050;2024-01-30T00:45:14;8.53;;;6.10;;
5702;SDS011;2876;51.738;10.050;2024-01-30T00:51:16;10.30;;;6.20;;
5702;SDS011;2876;51.738;10.050;2024-01-30T00:57:18;9.63;;;6.10;;
5702;SDS011;2876;51.738;10.050;2024-01-30T01:03:20;9.80;;;5.83;;
5702;SDS011;2876;51.738;10.050;2024-01-30T01:09:22;8.50;;;5.90;;
5702;SDS011;2876;51.738;10.050;2024-01-30T01:15:24;9.83;;;5.90;;
5702;SDS011;2876;51.738;10.050;2024-01-30T01:21:30;8.80;;;6.10;;
5702;SDS011;2876;51.738;10.050;2024-01-30T01:27:32;8.27;;;5.53;;
5702;SDS011;2876;51.738;10.050;2024-01-30T01:33:35;7.33;;;5.80;;
5702;SDS011;2876;51.738;10.050;2024-01-30T01:39:39;8.43;;;5.07;;
5702;SDS011;2876;51.738;10.050;2024-01-30T01:45:41;11.70;;;6.07;;
5702;SDS011;2876;51.738;10.050;2024-01-30T01:51:43;8.48;;;6.25;;
5702;SDS011;2876;51.738;10.050;2024-01-30T01:57:47;12.17;;;6.17;;
5702;SDS011;2876;51.738;10.050;2024-01-30T02:03:49;7.97;;;5.80;;
5702;SDS011;2876;51.738;10.050;2024-01-30T02:09:51;7.50;;;6.03;;
5702;SDS011;2876;51.738;10.050;2024-01-30T02:15:53;9.23;;;6.33;;
5702;SDS011;2876;51.738;10.050;2024-01-30T02:21:55;12.47;;;6.03;;
5702;SDS011;2876;51.738;10.050;2024-01-30T02:27:57;11.90;;;5.83;;
5702;SDS011;2876;51.738;10.050;2024-01-30T02:33:59;8.77;;;6.03;;
5702;SDS011;2876;51.738;10.050;2024-01-30T02:40:01;9.13;;;5.65;;
5702;SDS011;2876;51.738;10.050;2024-01-30T02:46:03;7.60;;;5.90;;
5702;SDS011;2876;51.738;10.050;2024-01-30T02:52:07;11.13;;;5.87;;
5702;SDS011;2876;51.738;10.050;2024-01-30T02:58:09;8.95;;;5.50;;
5702;SDS011;2876;51.738;10.050;2024-01-30T03:04:11;8.50;;;5.77;;
5702;SDS011;2876;51.738;10.050;2024-01-30T03:10:13;12.53;;;6.60;;
5702;SDS011;2876;51.738;10.050;2024-01-30T03:16:15;8.73;;;6.63;;
5702;SDS011;2876;51.738;10.050;2024-01-30T03:22:17;6.80;;;5.40;;
5702;SDS011;2876;51.738;10.050;2024-01-30T03:28:19;8.57;;;5.73;;
5702;SDS011;2876;51.738;10.050;2024-01-30T03:34:21;8.10;;;5.43;;
5702;SDS011;2876;51.738;10.050;2024-01-30T03:40:24;9.10;;;6.40;;
5702;SDS011;2876;51.738;10.050;2024-01-30T03:46:26;8.67;;;6.13;;
5702;SDS011;2876;51.738;10.050;2024-01-30T03:52:28;9.33;;;6.57;;
5702;SDS011;2876;51.738;10.050;2024-01-30T03:58:30;10.97;;;6.73;;
5702;SDS011;2876;51.738;10.050;2024-01-30T04:04:32;10.23;;;6.80;;
5702;SDS011;2876;51.738;10.050;2024-01-30T04:10:34;9.47;;;5.97;;
5702;SDS011;2876;51.738;10.050;2024-01-30T04:16:36;11.63;;;7.50;;
5702;SDS011;2876;51.738;10.050;2024-01-30T04:22:38;11.52;;;6.30;;
5702;SDS011;2876;51.738;10.050;2024-01-30T04:28:46;8.23;;;6.07;;
5702;SDS011;2876;51.738;10.050;2024-01-30T04:34:48;8.70;;;6.50;;
5702;SDS011;2876;51.738;10.050;2024-01-30T04:40:50;11.23;;;6.27;;
5702;SDS011;2876;51.738;10.050;2024-01-30T04:46:52;8.20;;;6.40;;
5702;SDS011;2876;51.738;10.050;2024-01-30T04:52:54;10.13;;;6.53;;
5702;SDS011;2876;51.738;10.050;2024-01-30T04:58:56;9.52;;;6.85;;
5702;SDS011;2876;51.738;10.050;2024-01-30T05:04:58;8.33;;;6.10;;
5702;SDS011;2876;51.738;10.050;2024-01-30T05:11:00;8.77;;;6.33;;
5702;SDS011;2876;51.738;10.050;2024-01-30T05:17:05;10.25;;;5.93;;
5702;SDS011;2876;51.738;10.050;2024-01-30T05:23:07;12.63;;;7.13;;
5702;SDS011;2876;51.738;10.050;2024-01-30T05:29:09;9.38;;;6.38;;
5702;SDS011;2876;51.738;10.050;2024-01-30T05:35:11;8.53;;;6.47;;
5702;SDS011;2876;51.738;10.050;2024-01-30T05:41:13;14.40;;;6.00;;
5702;SDS011;2876;51.738;10.050;2024-01-30T05:47:15;12.77;;;7.60;;
5702;SDS011;2876;51.738;10.050;2024-01-30T05:53:17;8.17;;;6.43;;
5702;SDS011;2876;51.738;10.050;2024-01-30T05:59:19;8.33;;;6.77;;
5702;SDS011;2876;51.738;10.050;2024-01-30T06:05:21;7.90;;;6.27;;
5702;SDS011;2876;51.738;10.050;2024-01-30T06:11:23;10.50;;;6.67;;
5702;SDS011;2876;51.738;10.050;2024-01-30T06:17:25;11.85;;;6.55;;
5702;SDS011;2876;51.738;10.050;2024-01-30T06:23:27;8.73;;;6.33;;
5702;SDS011;2876;51.738;10.050;2024-01-30T06:29:32;13.13;;;8.20;;
5702;SDS011;2876;51.738;10.050;2024-01-30T06:35:34;10.97;;;6.83;;
5702;SDS011;2876;51.738;10.050;2024-01-30T06:41:38;9.67;;;6.70;;
5702;SDS011;2876;51.738;10.050;2024-01-30T06:47:40;9.33;;;6.80;;
5702;SDS011;2876;51.738;10.050;2024-01-30T06:53:42;10.27;;;6.60;;
5702;SDS011;2876;51.738;10.050;2024-01-30T06:59:44;10.60;;;7.73;;
5702;SDS011;2876;51.738;10.050;2024-01-30T07:05:46;8.63;;;6.50;;
5702;SDS011;2876;51.738;10.050;2024-01-30T07:11:48;10.80;;;7.30;;
5702;SDS011;2876;51.738;10.050;2024-01-30T07:17:50;14.30;;;6.67;;
5702;SDS011;2876;51.738;10.050;2024-01-30T07:23:52;11.00;;;6.30;;
5702;SDS011;2876;51.738;10.050;2024-01-30T07:29:55;8.23;;;5.90;;
5702;SDS011;2876;51.738;10.050;2024-01-30T07:35:57;7.60;;;5.90;;
5702;SDS011;2876;51.738;10.050;2024-01-30T07:41:59;9.87;;;6.70;;
5702;SDS011;2876;51.738;10.050;2024-01-30T07:48:01;9.60;;;5.60;;
5702;SDS011;2876;51.738;10.050;2024-01-30T07:54:03;10.18;;;6.13;;
5702;SDS011;2876;51.738;10.050;2024-01-30T08:00:05;9.90;;;6.38;;
5702;SDS011;2876;51.738;10.050;2024-01-30T08:06:09;9.20;;;6.50;;
5702;SDS011;2876;51.738;10.050;2024-01-30T08:12:11;7.07;;;5.60;;
5702;SDS011;2876;51.738;10.050;2024-01-30T08:18:14;6.68;;;5.60;;
5702;SDS011;2876;51.738;10.050;2024-01-30T08:24:17;10.27;;;5.57;;
5702;SDS011;2876;51.738;10.050;2024-01-30T08:30:19;9.57;;;5.70;;
5702;SDS011;2876;51.738;10.050;2024-01-30T08:36:21;9.30;;;5.90;;
5702;SDS011;2876;51.738;10.050;2024-01-30T08:42:23;6.20;;;5.60;;
5702;SDS011;2876;51.738;10.050;2024-01-30T08:48:25;6.70;;;5.50;;
5702;SDS011;2876;51.738;10.050;2024-01-30T08:54:27;10.20;;;6.30;;
5702;SDS011;2876;51.738;10.050;2024-01-30T09:00:29;7.03;;;5.30;;
5702;SDS011;2876;51.738;10.050;2024-01-30T09:06:31;7.93;;;4.77;;
5702;SDS011;2876;51.738;10.050;2024-01-30T09:12:33;8.77;;;5.87;;
5702;SDS011;2876;51.738;10.050;2024-01-30T09:18:35;9.43;;;5.40;;
5702;SDS011;2876;51.738;10.050;2024-01-30T09:24:37;8.83;;;5.63;;
5702;SDS011;2876;51.738;10.050;2024-01-30T09:30:39;10.30;;;5.70;;
5702;SDS011;2876;51.738;10.050;2024-01-30T09:36:42;18.57;;;7.43;;
5702;SDS011;2876;51.738;10.050;2024-01-30T09:42:44;8.37;;;6.10;;
5702;SDS011;2876;51.738;10.050;2024-01-30T09:48:51;6.00;;;5.40;;
5702;SDS011;2876;51.738;10.050;2024-01-30T09:54:55;14.60;;;6.75;;
5702;SDS011;2876;51.738;10.050;2024-01-30T10:00:57;15.00;;;6.10;;
5702;SDS011;2876;51.738;10.050;2024-01-30T10:07:01;10.97;;;6.03;;
5702;SDS011;2876;51.738;10.050;2024-01-30T10:13:04;9.30;;;6.43;;
5702;SDS011;2876;51.738;10.050;2024-01-30T10:19:06;12.43;;;6.97;;
5702;SDS011;2876;51.738;10.050;2024-01-30T10:25:09;12.87;;;6.40;;
5702;SDS011;2876;51.738;10.050;2024-01-30T10:31:15;8.30;;;5.90;;
5702;SDS011;2876;51.738;10.050;2024-01-30T10:37:19;10.87;;;5.50;;
5702;SDS011;2876;51.738;10.050;2024-01-30T10:43:34;11.30;;;7.03;;
5702;SDS011;2876;51.738;10.050;2024-01-30T10:49:41;10.63;;;6.70;;
5702;SDS011;2876;51.738;10.050;2024-01-30T10:55:44;11.47;;;6.30;;
5702;SDS011;2876;51.738;10.050;2024-01-30T11:01:48;8.10;;;6.10;;
5702;SDS011;2876;51.738;10.050;2024-01-30T11:07:51;16.73;;;6.90;;
5702;SDS011;2876;51.738;10.050;2024-01-30T11:13:53;7.97;;;5.60;;
5702;SDS011;2876;51.738;10.050;2024-01-30T11:19:58;11.10;;;6.20;;
5702;SDS011;2876;51.738;10.050;2024-01-30T11:26:00;10.57;;;6.07;;
5702;SDS011;2876;51.738;10.050;2024-01-30T11:32:03;9.10;;;6.07;;
5702;SDS011;2876;51.738;10.050;2024-01-30T11:38:06;11.63;;;5.93;;
5702;SDS011;2876;51.738;10.050;2024-01-30T11:44:10;16.77;;;9.33;;
5702;SDS011;2876;51.738;10.050;2024-01-30T11:50:12;9.90;;;7.27;;
5702;SDS011;2876;51.738;10.050;2024-01-30T11:56:15;10.93;;;6.33;;
5702;SDS011;2876;51.738;10.050;2024-01-30T12:02:17;9.47;;;6.80;;
5702;SDS011;2876;51.738;10.050;2024-01-30T12:08:19;12.60;;;6.37;;
5702;SDS011;2876;51.738;10.050;2024-01-30T12:14:22;7.87;;;5.90;;
5702;SDS011;2876;51.738;10.050;2024-01-30T12:20:26;8.50;;;6.20;;
5702;SDS011;2876;51.738;10.050;2024-01-30T12:26:28;9.15;;;6.38;;
5702;SDS011;2876;51.738;10.050;2024-01-30T12:32:30;8.70;;;6.10;;
5702;SDS011;2876;51.738;10.050;2024-01-30T12:38:32;8.90;;;6.77;;
5702;SDS011;2876;51.738;10.050;2024-01-30T12:44:34;8.13;;;6.80;;
5702;SDS011;2876;51.738;10.050;2024-01-30T12:50:37;9.37;;;6.23;;
5702;SDS011;2876;51.738;10.050;2024-01-30T12:56:39;10.63;;;8.00;;
5702;SDS011;2876;51.738;10.050;2024-01-30T13:02:41;10.77;;;6.90;;
5702;SDS011;2876;51.738;10.050;2024-01-30T13:08:46;10.53;;;7.87;;
5702;SDS011;2876;51.738;10.050;2024-01-30T13:14:48;13.53;;;7.37;;
5702;SDS011;2876;51.738;10.050;2024-01-30T13:20:50;7.77;;;6.30;;
5702;SDS011;2876;51.738;10.050;2024-01-30T13:26:52;8.67;;;6.30;;
5702;SDS011;2876;51.738;10.050;2024-01-30T13:32:54;10.80;;;6.63;;
5702;SDS011;2876;51.738;10.050;2024-01-30T13:38:56;7.83;;;5.73;;
5702;SDS011;2876;51.738;10.050;2024-01-30T13:44:59;13.03;;;7.47;;
5702;SDS011;2876;51.738;10.050;2024-01-30T13:51:01;10.77;;;7.00;;
5702;SDS011;2876;51.738;10.050;2024-01-30T13:57:03;8.60;;;6.33;;
5702;SDS011;2876;51.738;10.050;2024-01-30T14:03:05;7.70;;;6.30;;
5702;SDS011;2876;51.738;10.050;2024-01-30T14:09:08;8.83;;;6.23;;
5702;SDS011;2876;51.738;10.050;2024-01-30T14:15:11;12.13;;;6.47;;
5702;SDS011;2876;51.738;10.050;2024-01-30T14:21:27;8.80;;;5.83;;
5702;SDS011;2876;51.738;10.050;2024-01-30T14:27:30;10.00;;;6.47;;
5702;SDS011;2876;51.738;10.050;2024-01-30T14:33:32;10.70;;;6.30;;
5702;SDS011;2876;51.738;10.050;2024-01-30T14:39:34;8.45;;;6.05;;
5702;SDS011;2876;51.738;10.050;2024-01-30T14:45:38;19.10;;;7.47;;
5702;SDS011;2876;51.738;10.050;2024-01-30T14:51:40;11.63;;;6.30;;
5702;SDS011;2876;51.738;10.050;2024-01-30T14:57:42;8.67;;;6.40;;
5702;SDS011;2876;51.738;10.050;2024-01-30T15:03:47;8.32;;;5.30;;
5702;SDS011;2876;51.738;10.050;2024-01-30T15:09:49;6.50;;;5.50;;
5702;SDS011;2876;51.738;10.050;2024-01-30T15:15:51;11.27;;;6.30;;
5702;SDS011;2876;51.738;10.050;2024-01-30T15:21:53;7.77;;;6.20;;
5702;SDS011;2876;51.738;10.050;2024-01-30T15:27:55;10.70;;;6.73;;
5702;SDS011;2876;51.738;10.050;2024-01-30T15:33:57;17.75;;;6.60;;
5702;SDS011;2876;51.738;10.050;2024-01-30T15:39:59;12.83;;;6.03;;
5702;SDS011;2876;51.738;10.050;2024-01-30T15:46:01;13.70;;;6.80;;
5702;SDS011;2876;51.738;10.050;2024-01-30T15:52:04;9.37;;;6.33;;
5702;SDS011;2876;51.738;10.050;2024-01-30T15:58:06;9.70;;;6.38;;
5702;SDS011;2876;51.738;10.050;2024-01-30T16:04:08;10.63;;;5.90;;
5702;SDS011;2876;51.738;10.050;2024-01-30T16:10:11;7.27;;;5.57;;
5702;SDS011;2876;51.738;10.050;2024-01-30T16:16:17;9.40;;;5.80;;
5702;SDS011;2876;51.738;10.050;2024-01-30T16:22:19;7.90;;;5.75;;
5702;SDS011;2876;51.738;10.050;2024-01-30T16:28:24;8.27;;;4.83;;
5702;SDS011;2876;51.738;10.050;2024-01-30T16:34:27;12.33;;;6.50;;
5702;SDS011;2876;51.738;10.050;2024-01-30T16:40:29;9.13;;;6.37;;
5702;SDS011;2876;51.738;10.050;2024-01-30T16:46:32;11.10;;;5.97;;
5702;SDS011;2876;51.738;10.050;2024-01-30T16:52:34;8.80;;;5.80;;
5702;SDS011;2876;51.738;10.050;2024-01-30T16:58:36;10.37;;;7.10;;
5702;SDS011;2876;51.738;10.050;2024-01-30T17:04:39;10.23;;;6.80;;
5702;SDS011;2876;51.738;10.050;2024-01-30T17:10:41;10.60;;;6.30;;
5702;SDS011;2876;51.738;10.050;2024-01-30T17:16:43;9.30;;;6.50;;
5702;SDS011;2876;51.738;10.050;2024-01-30T17:22:51;10.00;;;6.23;;
5702;SDS011;2876;51.738;10.050;2024-01-30T17:28:53;8.32;;;6.30;;
5702;SDS011;2876;51.738;10.050;2024-01-30T17:34:56;10.13;;;6.83;;
5702;SDS011;2876;51.738;10.050;2024-01-30T17:40:59;10.67;;;7.40;;
5702;SDS011;2876;51.738;10.050;2024-01-30T17:47:12;12.77;;;10.83;;
5702;SDS011;2876;51.738;10.050;2024-01-30T17:53:14;9.80;;;7.67;;
5702;SDS011;2876;51.738;10.050;2024-01-30T17:59:16;12.60;;;7.18;;
5702;SDS011;2876;51.738;10.050;2024-01-30T18:05:22;9.80;;;6.60;;
5702;SDS011;2876;51.738;10.050;2024-01-30T18:11:24;11.77;;;6.90;;
5702;SDS011;2876;51.738;10.050;2024-01-30T18:17:26;6.30;;;5.70;;
5702;SDS011;2876;51.738;10.050;2024-01-30T18:23:28;8.90;;;6.30;;
5702;SDS011;2876;51.738;10.050;2024-01-30T18:29:30;17.33;;;8.13;;
5702;SDS011;2876;51.738;10.050;2024-01-30T18:35:32;13.83;;;7.97;;
5702;SDS011;2876;51.738;10.050;2024-01-30T18:41:35;11.50;;;7.93;;
5702;SDS011;2876;51.738;10.050;2024-01-30T18:47:36;11.77;;;7.35;;
5702;SDS011;2876;51.738;10.050;2024-01-30T18:53:39;10.10;;;7.70;;
5702;SDS011;2876;51.738;10.050;2024-01-30T18:59:41;13.20;;;6.43;;
5702;SDS011;2876;51.738;10.050;2024-01-30T19:05:46;19.53;;;13.90;;
5702;SDS011;2876;51.738;10.050;2024-01-30T19:11:48;11.67;;;8.10;;
5702;SDS011;2876;51.738;10.050;2024-01-30T19:17:50;14.35;;;8.35;;
5702;SDS011;2876;51.738;10.050;2024-01-30T19:23:52;14.77;;;8.57;;
5702;SDS011;2876;51.738;10.050;2024-01-30T19:29:57;19.42;;;10.63;;
5702;SDS011;2876;51.738;10.050;2024-01-30T19:35:59;17.90;;;11.30;;
5702;SDS011;2876;51.738;10.050;2024-01-30T19:42:01;11.30;;;9.03;;
5702;SDS011;2876;51.738;10.050;2024-01-30T19:48:04;13.97;;;10.30;;
5702;SDS011;2876;51.738;10.050;2024-01-30T19:54:08;14.73;;;9.43;;
5702;SDS011;2876;51.738;10.050;2024-01-30T20:00:15;15.77;;;8.67;;
5702;SDS011;2876;51.738;10.050;2024-01-30T20:06:17;21.57;;;10.90;;
5702;SDS011;2876;51.738;10.050;2024-01-30T20:12:19;16.50;;;9.90;;
5702;SDS011;2876;51.738;10.050;2024-01-30T20:18:22;16.37;;;10.27;;
5702;SDS011;2876;51.738;10.050;2024-01-30T20:24:24;15.30;;;10.20;;
5702;SDS011;2876;51.738;10.050;2024-01-30T20:30:26;14.07;;;10.02;;
5702;SDS011;2876;51.738;10.050;2024-01-30T20:36:28;24.10;;;14.13;;
5702;SDS011;2876;51.738;10.050;2024-01-30T20:42:30;17.13;;;11.03;;
5702;SDS011;2876;51.738;10.050;2024-01-30T20:48:32;15.77;;;11.33;;
5702;SDS011;2876;51.738;10.050;2024-01-30T20:54:34;19.63;;;11.50;;
5702;SDS011;2876;51.738;10.050;2024-01-30T21:00:37;19.37;;;11.10;;
5702;SDS011;2876;51.738;10.050;2024-01-30T21:06:38;19.67;;;10.97;;
5702;SDS011;2876;51.738;10.050;2024-01-30T21:12:40;18.63;;;11.60;;
5702;SDS011;2876;51.738;10.050;2024-01-30T21:18:42;24.63;;;11.10;;
5702;SDS011;2876;51.738;10.050;2024-01-30T21:24:44;17.00;;;11.83;;
5702;SDS011;2876;51.738;10.050;2024-01-30T21:30:46;19.50;;;12.33;;
5702;SDS011;2876;51.738;10.050;2024-01-30T21:36:48;27.90;;;13.53;;
5702;SDS011;2876;51.738;10.050;2024-01-30T21:42:50;20.10;;;12.20;;
5702;SDS011;2876;51.738;10.050;2024-01-30T21:48:53;19.97;;;11.70;;
5702;SDS011;2876;51.738;10.050;2024-01-30T21:54:55;15.53;;;9.97;;
5702;SDS011;2876;51.738;10.050;2024-01-30T22:00:57;17.50;;;11.60;;
5702;SDS011;2876;51.738;10.050;2024-01-30T22:06:59;22.03;;;10.13;;
5702;SDS011;2876;51.738;10.050;2024-01-30T22:13:01;15.97;;;9.00;;
5702;SDS011;2876;51.738;10.050;2024-01-30T22:19:03;14.93;;;8.63;;
5702;SDS011;2876;51.738;10.050;2024-01-30T22:25:05;11.13;;;6.65;;
5702;SDS011;2876;51.738;10.050;2024-01-30T22:31:08;8.30;;;6.10;;
5702;SDS011;2876;51.738;10.050;2024-01-30T22:37:10;6.10;;;4.70;;
5702;SDS011;2876;51.738;10.050;2024-01-30T22:43:12;8.00;;;4.90;;
5702;SDS011;2876;51.738;10.050;2024-01-30T22:49:14;4.37;;;3.97;;
5702;SDS011;2876;51.738;10.050;2024-01-30T22:55:16;5.50;;;3.43;;
5702;SDS011;2876;51.738;10.050;2024-01-30T23:01:18;3.60;;;3.00;;
5702;SDS011;2876;51.738;10.050;2024-01-30T23:07:20;2.90;;;2.70;;
5702;SDS011;2876;51.738;10.050;2024-01-30T23:13:23;2.30;;;2.10;;
5702;SDS011;2876;51.738;10.050;2024-01-30T23:19:25;2.85;;;2.50;;
5702;SDS011;2876;51.738;10.050;2024-01-30T23:25:27;3.03;;;2.60;;
5702;SDS011;2876;51.738;10.050;2024-01-30T23:31:29;2.37;;;2.17;;
5702;SDS011;2876;51.738;10.050;2024-01-30T23:37:31;4.07;;;2.30;;
5702;SDS011;2876;51.738;10.050;2024-01-30T23:43:33;2.80;;;1.93;;
5702;SDS011;2876;51.738;10.050;2024-01-30T23:49:35;2.20;;;2.00;;
5702;SDS011;2876;51.738;10.050;2024-01-30T23:55:37;3.80;;;2.63;;
